Time;durP1;ratioP1;P1;durP2;ratioP2;P2;SDS_P1;SDS_P2;PMS_P1;PMS_P2;Temp;Humidity;BMP_temperature;BMP_pressure;BME280_temperature;BME280_humidity;BME280_pressure;Samples;Min_cycle;Max_cycle;Signal;HPM_P1;HPM_P2
2022/04/12 00:00:44;;;;;;;6.10;5.60;;;;;;;0.95;100.00;97029.97;5008435;28;20295;-55
2022/04/12 00:03:12;;;;;;;7.27;6.67;;;;;;;0.92;100.00;97038.84;5026197;28;20228;-57
2022/04/12 00:05:41;;;;;;;7.23;6.63;;;;;;;0.89;100.00;97033.03;4987954;28;20215;-56
2022/04/12 00:08:10;;;;;;;7.17;6.53;;;;;;;0.84;100.00;97036.88;5028903;28;20528;-57
2022/04/12 00:10:39;;;;;;;7.60;6.90;;;;;;;0.82;100.00;97037.97;5029747;28;20212;-57
2022/04/12 00:13:08;;;;;;;7.73;6.20;;;;;;;0.84;100.00;97036.06;5012292;28;20337;-55
2022/04/12 00:15:37;;;;;;;6.93;6.30;;;;;;;0.80;100.00;97035.47;5015575;28;20285;-55
2022/04/12 00:20:53;;;;;;;7.73;7.13;;;;;;;0.66;100.00;97031.38;4986035;28;20230;-56
2022/04/12 00:23:21;;;;;;;6.43;5.93;;;;;;;0.62;100.00;97032.59;5026630;28;20227;-58
2022/04/12 00:25:50;;;;;;;7.73;7.13;;;;;;;0.55;100.00;97031.44;5021186;28;20204;-53
2022/04/12 00:28:20;;;;;;;8.27;6.73;;;;;;;0.56;100.00;97028.69;5020339;28;20227;-58
2022/04/12 00:30:48;;;;;;;7.37;6.60;;;;;;;0.47;100.00;97026.84;5013276;28;20212;-52
2022/04/12 00:33:16;;;;;;;6.60;6.13;;;;;;;0.47;100.00;97034.66;5027530;28;20689;-58
2022/04/12 00:35:45;;;;;;;7.63;6.93;;;;;;;0.41;100.00;97025.56;5017884;28;20829;-54
2022/04/12 00:38:22;;;;;;;6.33;5.93;;;;;;;0.44;100.00;97034.91;5004511;28;20526;-58
2022/04/12 00:40:51;;;;;;;7.87;7.10;;;;;;;0.39;100.00;97030.09;5025299;28;20309;-52
2022/04/12 00:43:21;;;;;;;9.80;7.17;;;;;;;0.39;100.00;97032.69;5013699;28;20350;-56
2022/04/12 00:45:49;;;;;;;7.57;6.87;;;;;;;0.42;100.00;97037.66;5029341;28;20339;-55
2022/04/12 00:48:17;;;;;;;7.33;6.63;;;;;;;0.37;100.00;97034.56;5013145;28;20204;-56
2022/04/12 00:50:48;;;;;;;7.47;6.87;;;;;;;0.30;100.00;97024.78;5016608;28;20882;-57
2022/04/12 00:53:16;;;;;;;7.43;6.83;;;;;;;0.19;100.00;97015.19;4992074;28;20381;-57
2022/04/12 00:55:44;;;;;;;7.53;6.83;;;;;;;0.22;100.00;97017.56;5026533;28;20227;-55
2022/04/12 00:58:13;;;;;;;7.87;7.10;;;;;;;0.26;100.00;97018.97;5011050;28;20211;-59
2022/04/12 01:00:42;;;;;;;8.17;7.07;;;;;;;0.14;100.00;97005.97;5027609;28;20215;-55
2022/04/12 01:03:10;;;;;;;7.53;6.93;;;;;;;0.12;100.00;97020.06;5024208;28;20779;-56
2022/04/12 01:05:39;;;;;;;7.23;6.63;;;;;;;0.12;100.00;97014.84;5028249;28;20499;-57
2022/04/12 01:08:07;;;;;;;7.27;6.73;;;;;;;0.09;100.00;97013.34;4966848;28;20787;-60
2022/04/12 01:10:37;;;;;;;8.00;7.30;;;;;;;0.08;100.00;97018.66;5027139;28;20204;-56
2022/04/12 01:13:05;;;;;;;7.23;6.40;;;;;;;0.05;100.00;97019.75;5008065;28;23033;-59
2022/04/12 01:15:35;;;;;;;7.80;6.80;;;;;;;0.06;100.00;97025.75;5027555;28;20214;-60
2022/04/12 01:18:04;;;;;;;6.73;6.23;;;;;;;0.00;100.00;97016.69;5025064;28;20977;-57
2022/04/12 01:20:33;;;;;;;7.57;6.97;;;;;;;0.13;100.00;97029.53;5025995;28;20271;-56
2022/04/12 01:23:09;;;;;;;7.43;6.73;;;;;;;0.05;100.00;97019.75;4984223;28;20228;-59
2022/04/12 01:25:39;;;;;;;7.83;7.27;;;;;;;0.01;100.00;97020.94;5010599;28;20756;-59
2022/04/12 01:28:08;;;;;;;8.20;7.50;;;;;;;0.03;100.00;97028.63;5026889;28;20331;-56
2022/04/12 01:30:36;;;;;;;7.43;6.73;;;;;;;-0.01;100.00;97025.41;5011151;28;20285;-57
2022/04/12 01:33:05;;;;;;;7.77;6.97;;;;;;;-0.07;100.00;97028.50;5019067;28;20220;-59
2022/04/12 01:35:33;;;;;;;7.70;7.00;;;;;;;-0.15;100.00;97027.34;5026174;28;20204;-54
2022/04/12 01:38:01;;;;;;;8.20;7.53;;;;;;;-0.19;100.00;97031.13;4981481;28;20983;-57
2022/04/12 01:40:29;;;;;;;7.90;7.30;;;;;;;-0.22;100.00;97022.72;5011161;28;20220;-59
2022/04/12 01:42:59;;;;;;;8.00;7.33;;;;;;;-0.27;100.00;97007.47;4998692;28;20227;-54
2022/04/12 01:45:27;;;;;;;9.93;7.30;;;;;;;-0.30;100.00;96999.91;5002144;28;20211;-56
2022/04/12 01:47:57;;;;;;;7.90;7.17;;;;;;;-0.28;100.00;96998.00;5009871;28;20635;-56
2022/04/12 01:50:26;;;;;;;8.00;7.27;;;;;;;-0.11;100.00;96995.84;5023638;28;20208;-57
2022/04/12 01:52:55;;;;;;;8.23;6.97;;;;;;;-0.05;100.00;97003.16;4978586;28;20238;-55
2022/04/12 01:55:23;;;;;;;6.97;6.37;;;;;;;-0.07;100.00;96998.09;5004870;28;20320;-53
2022/04/12 01:57:52;;;;;;;6.80;6.20;;;;;;;-0.06;100.00;96997.16;5027913;28;20261;-56
2022/04/12 02:00:22;;;;;;;11.17;6.77;;;;;;;-0.16;100.00;96996.22;5002735;28;20203;-56
2022/04/12 02:02:50;;;;;;;6.67;5.93;;;;;;;-0.17;100.00;97005.00;5028301;28;20223;-60
2022/04/12 02:05:20;;;;;;;7.10;6.53;;;;;;;-0.20;100.00;97000.00;5022535;28;20310;-55
2022/04/12 02:07:48;;;;;;;7.43;6.57;;;;;;;-0.29;100.00;96998.97;4982761;28;20204;-58
2022/04/12 02:10:18;;;;;;;6.63;6.03;;;;;;;-0.33;100.00;96998.38;5020270;28;20212;-54
2022/04/12 02:12:46;;;;;;;7.50;6.50;;;;;;;-0.34;100.00;97001.09;5025065;28;20238;-56
2022/04/12 02:15:15;;;;;;;7.03;6.43;;;;;;;-0.39;100.00;96996.25;5012947;28;20231;-54
2022/04/12 02:17:44;;;;;;;6.70;6.10;;;;;;;-0.40;100.00;97006.75;5026771;28;20232;-59
2022/04/12 02:20:13;;;;;;;8.13;7.33;;;;;;;-0.41;100.00;97012.91;5023287;28;20234;-55
2022/04/12 02:22:41;;;;;;;8.30;6.30;;;;;;;-0.44;100.00;97003.59;5026722;28;20220;-55
2022/04/12 02:25:11;;;;;;;6.30;5.80;;;;;;;-0.25;100.00;97007.34;4979274;28;20222;-55
2022/04/12 02:27:39;;;;;;;7.23;6.63;;;;;;;-0.38;100.00;97018.72;5015393;28;20211;-59
2022/04/12 02:30:09;;;;;;;6.50;6.00;;;;;;;-0.46;100.00;97018.50;5029188;28;20203;-56
2022/04/12 02:32:37;;;;;;;6.90;6.30;;;;;;;-0.47;100.00;97009.03;5009556;28;20227;-54
2022/04/12 02:35:08;;;;;;;6.33;5.83;;;;;;;-0.54;100.00;97008.66;5024696;28;20216;-55
2022/04/12 02:37:37;;;;;;;6.70;6.13;;;;;;;-0.61;100.00;97013.50;5027546;28;20239;-55
2022/04/12 02:40:07;;;;;;;5.67;5.23;;;;;;;-0.67;100.00;97008.78;4990494;28;20213;-58
2022/04/12 02:42:35;;;;;;;7.10;6.50;;;;;;;-0.66;100.00;97012.22;5008430;28;20595;-54
2022/04/12 02:45:04;;;;;;;7.87;7.07;;;;;;;-0.78;100.00;97006.19;5022229;28;20207;-56
2022/04/12 02:47:32;;;;;;;7.47;6.87;;;;;;;-0.83;100.00;97005.72;5009097;28;20214;-55
2022/04/12 02:50:01;;;;;;;10.37;8.27;;;;;;;-0.85;100.00;97007.59;5027042;28;20227;-55
2022/04/12 02:52:30;;;;;;;6.53;6.03;;;;;;;-0.87;100.00;96999.91;5025875;28;20837;-56
2022/04/12 02:54:59;;;;;;;6.50;6.00;;;;;;;-0.88;100.00;97011.25;4991242;28;20216;-53
2022/04/12 02:57:27;;;;;;;7.50;6.80;;;;;;;-0.93;100.00;97006.41;5007853;28;20235;-54
2022/04/12 02:59:56;;;;;;;7.47;6.83;;;;;;;-0.99;100.00;97009.44;5027680;28;20199;-60
2022/04/12 03:02:24;;;;;;;6.60;6.10;;;;;;;-0.97;100.00;97012.75;5008619;28;20231;-56
2022/04/12 03:04:53;;;;;;;6.47;5.87;;;;;;;-0.98;100.00;97008.50;5022238;28;20667;-54
2022/04/12 03:07:25;;;;;;;7.13;6.63;;;;;;;-1.03;100.00;97003.66;5025128;28;20908;-55
2022/04/12 03:10:01;;;;;;;7.30;6.60;;;;;;;-1.07;100.00;97006.59;4988673;28;20215;-54
2022/04/12 03:12:30;;;;;;;7.47;6.77;;;;;;;-1.07;100.00;97009.22;5004905;28;20230;-56
2022/04/12 03:14:59;;;;;;;7.07;6.50;;;;;;;-1.10;100.00;97009.44;5006473;28;20211;-55
2022/04/12 03:17:28;;;;;;;6.70;6.10;;;;;;;-1.11;100.00;97007.78;5025776;28;20235;-56
2022/04/12 03:19:56;;;;;;;7.00;6.40;;;;;;;-1.15;100.00;97007.16;5007375;28;20216;-54
2022/04/12 03:22:25;;;;;;;7.57;6.87;;;;;;;-1.18;100.00;97005.66;5029094;28;20219;-57
2022/04/12 03:24:54;;;;;;;7.43;6.77;;;;;;;-1.20;100.00;97006.69;5015178;28;20204;-55
2022/04/12 03:27:24;;;;;;;6.50;5.80;;;;;;;-1.27;100.00;97000.31;5008281;28;20211;-59
2022/04/12 03:29:52;;;;;;;7.37;6.77;;;;;;;-1.14;100.00;97000.22;5011349;28;20342;-59
2022/04/12 03:32:20;;;;;;;6.63;6.03;;;;;;;-1.12;100.00;96995.72;5022929;28;21014;-55
2022/04/12 03:34:50;;;;;;;7.80;7.10;;;;;;;-1.15;100.00;97003.75;5004800;28;20211;-57
2022/04/12 03:37:18;;;;;;;6.87;6.30;;;;;;;-1.14;100.00;97001.03;5025719;28;20306;-59
2022/04/12 03:39:47;;;;;;;9.10;6.67;;;;;;;-1.13;100.00;96996.66;4997565;28;20702;-55
2022/04/12 03:42:18;;;;;;;8.67;6.90;;;;;;;-1.22;100.00;96993.81;4984248;28;20774;-49
2022/04/12 03:44:48;;;;;;;7.27;6.67;;;;;;;-1.28;100.00;96996.88;5004890;28;20274;-57
2022/04/12 03:47:16;;;;;;;7.37;6.80;;;;;;;-1.31;100.00;96995.31;5005975;28;20211;-55
2022/04/12 03:49:44;;;;;;;7.23;6.63;;;;;;;-1.36;100.00;96996.59;5008437;28;20272;-52
2022/04/12 03:52:12;;;;;;;7.27;6.53;;;;;;;-1.44;100.00;96997.19;5031044;28;20246;-56
2022/04/12 03:54:41;;;;;;;7.63;6.97;;;;;;;-1.51;100.00;96983.00;5027217;28;20454;-54
2022/04/12 03:57:09;;;;;;;7.00;6.40;;;;;;;-1.44;100.00;96997.19;4984889;28;20648;-53
2022/04/12 03:59:37;;;;;;;7.87;7.17;;;;;;;-1.42;100.00;96997.91;5029174;28;20292;-55
2022/04/12 04:02:07;;;;;;;7.20;6.60;;;;;;;-1.52;100.00;97000.34;5010594;28;20659;-56
2022/04/12 04:04:35;;;;;;;7.80;7.13;;;;;;;-1.53;100.00;97003.03;5004392;28;20766;-56
2022/04/12 04:07:05;;;;;;;6.97;6.47;;;;;;;-1.49;100.00;96997.50;5009293;28;20290;-55
2022/04/12 04:09:33;;;;;;;8.13;7.40;;;;;;;-1.47;100.00;97006.03;5025886;28;20247;-54
2022/04/12 04:12:03;;;;;;;7.30;6.77;;;;;;;-1.49;100.00;97012.28;5002689;28;20743;-56
2022/04/12 04:14:33;;;;;;;8.00;7.20;;;;;;;-1.48;100.00;97014.78;4978604;28;20243;-56
2022/04/12 04:17:01;;;;;;;7.43;6.73;;;;;;;-1.50;100.00;97021.84;5006853;28;20243;-55
2022/04/12 04:19:31;;;;;;;6.87;6.27;;;;;;;-1.39;100.00;97020.22;5031800;28;20583;-56
2022/04/12 04:22:00;;;;;;;8.47;7.67;;;;;;;-1.40;100.00;97016.81;5004406;28;20819;-53
2022/04/12 04:24:32;;;;;;;6.80;6.27;;;;;;;-1.40;100.00;97014.22;5029444;28;20684;-54
2022/04/12 04:27:05;;;;;;;6.07;5.60;;;;;;;-1.50;100.00;97019.25;5028889;28;20931;-55
2022/04/12 04:29:35;;;;;;;6.50;6.03;;;;;;;-1.41;100.00;97029.91;5000991;28;20241;-53
2022/04/12 04:32:04;;;;;;;6.70;6.10;;;;;;;-1.48;100.00;97032.16;5011449;28;20281;-54
2022/04/12 04:34:33;;;;;;;7.43;6.73;;;;;;;-1.37;100.00;97026.13;5024488;28;20680;-53
2022/04/12 04:37:02;;;;;;;7.90;7.20;;;;;;;-1.33;100.00;97022.38;5029681;28;21075;-53
2022/04/12 04:39:30;;;;;;;7.13;6.63;;;;;;;-1.35;100.00;97019.91;5006932;28;20326;-56
2022/04/12 04:41:58;;;;;;;7.30;6.70;;;;;;;-1.39;100.00;97028.03;5027930;28;20227;-56
2022/04/12 04:44:26;;;;;;;7.73;7.00;;;;;;;-1.36;100.00;97033.84;4997231;28;20293;-56
2022/04/12 04:46:54;;;;;;;9.35;8.60;;;;;;;-1.39;100.00;97034.06;5007994;28;21843;-58
2022/04/12 04:49:23;;;;;;;8.53;7.83;;;;;;;-1.30;100.00;97029.97;5033748;28;20284;-57
2022/04/12 04:51:52;;;;;;;7.70;7.10;;;;;;;-1.23;100.00;97031.16;5026956;28;20204;-59
2022/04/12 04:54:21;;;;;;;10.37;8.40;;;;;;;-1.17;100.00;97035.06;5013421;28;20809;-53
2022/04/12 04:56:49;;;;;;;8.37;7.77;;;;;;;-1.09;100.00;97027.53;5026496;28;20199;-58
2022/04/12 04:59:17;;;;;;;8.37;7.57;;;;;;;-1.00;100.00;97043.41;5029261;28;20224;-55
2022/04/12 05:01:45;;;;;;;8.90;7.87;;;;;;;-0.97;100.00;97041.38;4960389;28;20505;-54
2022/04/12 05:04:13;;;;;;;7.77;7.07;;;;;;;-0.88;100.00;97040.72;5030721;28;20278;-55
2022/04/12 05:06:42;;;;;;;7.80;7.10;;;;;;;-0.79;100.00;97048.75;5022598;28;20290;-52
2022/04/12 05:09:11;;;;;;;7.77;7.07;;;;;;;-0.69;100.00;97047.09;5014918;28;20266;-54
2022/04/12 05:11:39;;;;;;;7.70;7.00;;;;;;;-0.64;100.00;97050.19;5026068;28;20236;-53
2022/04/12 05:14:08;;;;;;;7.77;7.17;;;;;;;-0.61;100.00;97033.53;5002303;28;20297;-52
2022/04/12 05:16:36;;;;;;;8.43;7.57;;;;;;;-0.47;100.00;97046.28;4960576;28;20497;-57
2022/04/12 05:19:04;;;;;;;8.23;7.47;;;;;;;-0.23;100.00;97044.50;4990512;28;20779;-56
2022/04/12 05:21:33;;;;;;;7.93;7.13;;;;;;;-0.03;100.00;97048.16;5024473;28;20310;-51
2022/04/12 05:24:01;;;;;;;7.53;6.83;;;;;;;0.05;100.00;97047.56;5029157;28;20233;-56
2022/04/12 05:26:31;;;;;;;7.90;7.13;;;;;;;0.21;100.00;97045.41;5013904;28;20436;-56
2022/04/12 05:28:59;;;;;;;8.67;7.97;;;;;;;0.27;100.00;97039.69;5027851;28;20282;-53
2022/04/12 05:31:27;;;;;;;7.70;6.93;;;;;;;0.37;100.00;97044.16;4978129;28;21220;-51
2022/04/12 05:34:00;;;;;;;7.13;6.63;;;;;;;0.63;100.00;97036.84;5006394;28;20765;-55
2022/04/12 05:36:28;;;;;;;7.90;7.03;;;;;;;0.71;100.00;97044.88;5020690;28;20296;-53
2022/04/12 05:38:56;;;;;;;7.77;6.57;;;;;;;0.82;100.00;97038.78;5028370;28;20223;-56
2022/04/12 05:41:25;;;;;;;6.90;6.30;;;;;;;0.88;100.00;97040.06;5009108;28;20231;-51
2022/04/12 05:43:54;;;;;;;7.20;6.50;;;;;;;0.87;100.00;97043.63;5022435;28;20227;-55
2022/04/12 05:46:23;;;;;;;7.37;6.77;;;;;;;1.06;100.00;97036.88;4977385;28;20207;-51
2022/04/12 05:48:51;;;;;;;8.27;7.27;;;;;;;1.11;100.00;97047.75;5026396;28;20210;-53
2022/04/12 05:51:19;;;;;;;7.43;6.83;;;;;;;1.24;100.00;97047.56;5012925;28;20216;-54
2022/04/12 05:53:48;;;;;;;7.43;6.70;;;;;;;1.24;100.00;97047.56;5026960;28;20223;-51
2022/04/12 05:56:16;;;;;;;7.40;6.80;;;;;;;1.28;100.00;97046.34;5015130;28;20403;-51
2022/04/12 05:58:46;;;;;;;6.73;6.13;;;;;;;1.55;100.00;97037.13;5027496;28;20219;-57
2022/04/12 06:01:16;;;;;;;6.90;6.40;;;;;;;1.50;100.00;97036.72;5028368;28;20715;-50
2022/04/12 06:03:44;;;;;;;6.60;5.97;;;;;;;1.65;100.00;97045.03;4978990;28;20329;-55
2022/04/12 06:06:14;;;;;;;6.53;6.03;;;;;;;1.77;100.00;97043.16;5011461;28;20679;-52
2022/04/12 06:08:42;;;;;;;6.70;6.00;;;;;;;1.97;100.00;97046.66;5025993;28;20628;-55
2022/04/12 06:11:11;;;;;;;5.67;5.23;;;;;;;2.07;100.00;97052.72;5017817;28;20215;-53
2022/04/12 06:13:39;;;;;;;6.53;6.03;;;;;;;2.07;100.00;97054.50;5026621;28;20231;-54
2022/04/12 06:16:08;;;;;;;7.60;6.40;;;;;;;2.27;100.00;97050.97;5027578;28;20200;-53
2022/04/12 06:18:37;;;;;;;6.97;6.27;;;;;;;2.56;100.00;97059.81;4971946;28;20652;-58
2022/04/12 06:21:06;;;;;;;6.13;5.63;;;;;;;2.72;100.00;97054.88;5025800;28;20236;-56
2022/04/12 06:23:35;;;;;;;5.80;5.40;;;;;;;3.03;100.00;97046.91;5009109;28;20231;-54
2022/04/12 06:26:03;;;;;;;8.77;6.97;;;;;;;3.38;100.00;97051.63;5028488;28;20272;-55
2022/04/12 06:28:32;;;;;;;8.97;6.97;;;;;;;3.59;100.00;97047.03;5012371;28;20270;-57
2022/04/12 06:31:01;;;;;;;7.33;5.53;;;;;;;3.72;100.00;97044.09;5029478;28;20254;-58
2022/04/12 06:33:29;;;;;;;6.77;6.17;;;;;;;4.03;100.00;97056.94;5009708;28;20581;-50
2022/04/12 06:35:59;;;;;;;5.70;5.20;;;;;;;4.74;100.00;97049.28;4986331;28;20304;-52
2022/04/12 06:38:32;;;;;;;6.90;6.40;;;;;;;5.98;100.00;97043.19;5008052;28;20291;-57
2022/04/12 06:41:00;;;;;;;6.57;6.07;;;;;;;6.69;100.00;97040.28;5026849;28;20231;-57
2022/04/12 06:43:29;;;;;;;6.27;5.77;;;;;;;7.73;100.00;97042.34;5013754;28;20824;-52
2022/04/12 06:45:57;;;;;;;8.23;6.27;;;;;;;8.61;100.00;97050.22;5026323;28;20989;-57
2022/04/12 06:48:25;;;;;;;4.97;4.50;;;;;;;9.04;100.00;97044.47;5007345;28;20402;-53
2022/04/12 06:50:55;;;;;;;5.57;5.07;;;;;;;9.58;100.00;97040.03;4987967;28;20737;-55
2022/04/12 06:53:25;;;;;;;4.87;4.57;;;;;;;10.46;100.00;97049.97;5005090;28;20250;-55
2022/04/12 06:55:53;;;;;;;4.97;4.57;;;;;;;11.51;89.55;97044.19;5028131;28;20292;-55
2022/04/12 06:58:21;;;;;;;4.70;4.30;;;;;;;12.06;76.39;97036.38;5008764;28;20211;-54
2022/04/12 07:00:50;;;;;;;5.07;4.63;;;;;;;10.74;95.01;97051.88;5026524;28;20219;-56
2022/04/12 07:03:18;;;;;;;4.57;4.27;;;;;;;10.04;100.00;97052.25;5023466;28;20323;-52
2022/04/12 07:05:49;;;;;;;4.30;3.93;;;;;;;9.39;100.00;97066.81;4978680;28;20223;-56
2022/04/12 07:08:17;;;;;;;5.93;5.43;;;;;;;9.03;100.00;97061.34;5022540;28;20243;-58
2022/04/12 07:10:51;;;;;;;5.77;4.27;;;;;;;8.95;100.00;97056.94;5026979;28;20203;-53
2022/04/12 07:13:20;;;;;;;4.33;3.50;;;;;;;8.93;100.00;97057.13;5014584;28;20282;-54
2022/04/12 07:15:49;;;;;;;4.07;3.77;;;;;;;8.61;100.00;97060.78;5025969;28;20447;-58
2022/04/12 07:18:18;;;;;;;4.60;4.20;;;;;;;8.77;100.00;97057.22;5023957;28;20200;-52
2022/04/12 07:20:48;;;;;;;4.20;3.90;;;;;;;8.66;100.00;97064.56;5023068;28;20246;-59
2022/04/12 07:23:17;;;;;;;3.73;3.53;;;;;;;8.83;96.85;97060.00;4975499;28;20321;-53
2022/04/12 07:25:45;;;;;;;4.53;4.20;;;;;;;8.80;97.93;97068.28;5019803;28;20428;-54
2022/04/12 07:28:14;;;;;;;5.17;4.03;;;;;;;8.44;100.00;97060.03;5014602;28;20487;-51
2022/04/12 07:30:42;;;;;;;5.13;4.10;;;;;;;8.43;100.00;97061.84;5028350;28;20226;-57
2022/04/12 07:33:19;;;;;;;4.53;4.13;;;;;;;8.39;100.00;97063.19;5023679;28;20223;-52
2022/04/12 07:35:47;;;;;;;5.67;4.20;;;;;;;8.39;100.00;97077.22;5022723;28;20222;-56
2022/04/12 07:38:15;;;;;;;4.83;3.63;;;;;;;8.57;99.08;97077.97;4978261;28;20293;-54
2022/04/12 07:40:44;;;;;;;4.80;4.30;;;;;;;8.83;100.00;97072.38;5018431;28;20402;-53
2022/04/12 07:43:12;;;;;;;4.30;3.97;;;;;;;9.17;95.10;97071.13;5026707;28;20258;-53
2022/04/12 07:45:41;;;;;;;4.33;3.93;;;;;;;9.21;96.14;97074.25;5010136;28;20441;-53
2022/04/12 07:48:10;;;;;;;4.23;3.70;;;;;;;9.40;89.83;97076.38;5023194;28;20211;-53
2022/04/12 07:50:38;;;;;;;4.50;4.10;;;;;;;9.38;94.74;97062.50;5013867;28;20446;-51
2022/04/12 07:53:06;;;;;;;4.60;4.20;;;;;;;9.40;91.19;97051.78;4985870;28;21822;-58
2022/04/12 07:55:34;;;;;;;4.87;3.50;;;;;;;9.58;83.48;97069.13;5008189;28;20374;-52
2022/04/12 07:58:03;;;;;;;4.70;4.23;;;;;;;9.71;77.95;97066.69;5024945;28;20644;-56
2022/04/12 08:00:31;;;;;;;4.50;3.87;;;;;;;9.85;81.76;97071.16;5010405;28;20223;-53
2022/04/12 08:03:01;;;;;;;4.43;4.10;;;;;;;9.78;78.93;97070.25;5026920;28;20219;-57
2022/04/12 08:05:29;;;;;;;4.43;4.13;;;;;;;9.70;78.44;97080.91;5009958;28;20208;-55
2022/04/12 08:07:57;;;;;;;5.83;3.80;;;;;;;10.10;71.49;97073.53;5029993;28;20293;-55
2022/04/12 08:10:25;;;;;;;4.07;3.53;;;;;;;10.02;71.78;97072.81;4966132;28;20334;-55
2022/04/12 08:12:55;;;;;;;4.63;3.63;;;;;;;10.11;72.67;97074.34;5031439;28;20215;-52
2022/04/12 08:15:23;;;;;;;4.47;4.00;;;;;;;10.27;68.10;97068.03;5008576;28;20828;-54
2022/04/12 08:17:52;;;;;;;3.80;3.50;;;;;;;10.44;68.48;97062.56;5030970;28;20207;-55
2022/04/12 08:20:24;;;;;;;4.63;3.60;;;;;;;10.57;66.89;97066.16;5015954;28;20577;-50
2022/04/12 08:22:53;;;;;;;4.17;3.77;;;;;;;10.94;69.59;97065.31;5028691;28;20231;-55
2022/04/12 08:25:21;;;;;;;5.40;3.83;;;;;;;11.04;65.37;97060.53;4974626;28;20305;-53
2022/04/12 08:27:49;;;;;;;5.83;4.00;;;;;;;11.37;64.30;97064.47;5023130;28;20200;-57
2022/04/12 08:30:18;;;;;;;4.43;3.60;;;;;;;11.49;70.00;97056.81;5028231;28;20261;-54
2022/04/12 08:32:47;;;;;;;3.70;3.50;;;;;;;11.41;63.10;97055.13;5023849;28;20227;-52
2022/04/12 08:35:15;;;;;;;4.40;4.10;;;;;;;11.46;60.81;97042.09;5031240;28;20250;-53
2022/04/12 08:37:45;;;;;;;3.43;3.17;;;;;;;11.42;60.37;97040.84;5020641;28;20392;-57
2022/04/12 08:40:15;;;;;;;3.40;3.10;;;;;;;11.38;63.13;97035.13;4985288;28;20277;-53
2022/04/12 08:42:43;;;;;;;4.57;3.70;;;;;;;11.55;58.97;97038.31;5012041;28;20651;-54
2022/04/12 08:45:12;;;;;;;2.70;2.50;;;;;;;11.53;59.58;97027.03;5029120;28;20357;-53
2022/04/12 08:47:40;;;;;;;3.70;3.40;;;;;;;11.70;59.97;97022.25;5014659;28;20301;-56
2022/04/12 08:50:10;;;;;;;3.17;2.90;;;;;;;11.96;56.82;97019.97;5028126;28;20258;-52
2022/04/12 08:52:39;;;;;;;4.10;2.83;;;;;;;11.97;56.11;97026.91;5017045;28;22080;-56
2022/04/12 08:55:09;;;;;;;3.30;3.00;;;;;;;11.88;54.61;97023.59;4986284;28;20781;-55
2022/04/12 08:57:38;;;;;;;3.13;2.93;;;;;;;12.01;56.00;97017.56;5012036;28;20492;-52
2022/04/12 09:00:08;;;;;;;7.90;3.07;;;;;;;12.09;56.53;97021.88;5027183;28;20420;-56
2022/04/12 09:02:36;;;;;;;3.17;2.77;;;;;;;12.20;55.61;97017.81;5017131;28;20605;-55
2022/04/12 09:05:06;;;;;;;3.17;2.83;;;;;;;12.23;54.62;97012.94;5031237;28;20207;-57
2022/04/12 09:07:45;;;;;;;3.07;2.77;;;;;;;12.47;55.32;97013.41;5011798;28;20900;-53
2022/04/12 09:10:14;;;;;;;2.60;2.40;;;;;;;12.43;55.43;97007.69;5013912;28;20472;-51
2022/04/12 09:12:43;;;;;;;5.00;2.87;;;;;;;12.73;53.33;97017.16;4995931;28;20430;-53
2022/04/12 09:15:14;;;;;;;2.90;2.80;;;;;;;12.93;53.95;97019.06;5028991;28;20690;-50
2022/04/12 09:17:44;;;;;;;2.73;2.53;;;;;;;13.09;50.90;97028.47;5014136;28;20469;-57
2022/04/12 09:20:14;;;;;;;3.20;3.00;;;;;;;13.22;50.85;97023.16;5027217;28;20231;-55
2022/04/12 09:22:42;;;;;;;3.00;2.50;;;;;;;13.51;51.55;97009.66;5018210;28;20297;-57
2022/04/12 09:25:13;;;;;;;4.17;2.53;;;;;;;13.58;47.51;97011.28;5029645;28;20711;-53
2022/04/12 09:27:44;;;;;;;3.17;2.60;;;;;;;13.83;46.61;97005.28;4984118;28;20212;-56
2022/04/12 09:30:14;;;;;;;2.60;2.40;;;;;;;13.60;49.23;97008.41;5016489;28;20235;-50
2022/04/12 09:32:46;;;;;;;2.43;2.33;;;;;;;13.73;45.19;97002.22;5016457;28;20235;-52
2022/04/12 09:35:14;;;;;;;6.30;2.30;;;;;;;13.84;44.80;96998.94;5025927;28;20258;-54
2022/04/12 09:37:44;;;;;;;3.37;1.80;;;;;;;13.61;42.19;96994.06;5014472;28;20575;-53
2022/04/12 09:40:14;;;;;;;2.37;2.00;;;;;;;13.87;42.90;96990.53;5026510;28;20227;-54
2022/04/12 09:42:48;;;;;;;1.27;1.27;;;;;;;14.06;44.29;96985.31;4983642;28;20452;-54
2022/04/12 09:45:18;;;;;;;4.37;2.07;;;;;;;14.28;41.16;96977.03;5014084;28;20606;-51
2022/04/12 09:47:48;;;;;;;5.20;2.07;;;;;;;14.36;41.62;96987.44;5028308;28;20200;-50
2022/04/12 09:50:36;;;;;;;3.60;1.50;;;;;;;14.42;39.12;96981.25;5013032;28;20381;-54
2022/04/12 09:53:10;;;;;;;1.97;1.87;;;;;;;14.47;36.84;96981.44;5015737;28;20219;-49
2022/04/12 09:55:40;;;;;;;1.70;1.27;;;;;;;14.65;38.44;96976.41;5028126;28;20731;-52
2022/04/12 09:58:13;;;;;;;3.87;2.37;;;;;;;14.84;38.27;96972.84;4982471;28;20208;-49
2022/04/12 10:00:43;;;;;;;1.27;1.20;;;;;;;14.86;36.67;96968.09;5009718;28;20255;-55
2022/04/12 10:03:13;;;;;;;2.57;1.33;;;;;;;14.89;36.91;96967.66;5027957;28;20259;-53
2022/04/12 10:05:41;;;;;;;0.80;0.80;;;;;;;14.96;34.54;96956.13;5017878;28;20312;-54
2022/04/12 10:08:11;;;;;;;12.13;2.27;;;;;;;15.03;34.49;96959.56;5015484;28;20204;-53
2022/04/12 10:10:42;;;;;;;3.13;1.73;;;;;;;15.03;37.05;96963.06;5025924;28;20397;-51
2022/04/12 10:13:14;;;;;;;2.47;1.00;;;;;;;15.01;37.39;96954.44;5017681;28;20451;-56
2022/04/12 10:15:44;;;;;;;3.03;1.00;;;;;;;15.01;36.51;96953.63;4997320;28;20432;-56
2022/04/12 10:18:15;;;;;;;0.97;0.80;;;;;;;15.27;36.63;96951.75;5029446;28;20208;-55
2022/04/12 10:20:44;;;;;;;1.03;0.87;;;;;;;15.32;35.21;96955.38;5015248;28;20443;-56
2022/04/12 10:23:18;;;;;;;8.47;1.33;;;;;;;15.20;34.32;96941.13;5015104;28;20228;-49
2022/04/12 10:25:49;;;;;;;3.80;1.37;;;;;;;15.32;36.82;96947.38;5027131;28;20676;-53
2022/04/12 10:28:20;;;;;;;4.47;1.30;;;;;;;15.43;35.11;96940.50;5001273;28;20243;-53
2022/04/12 10:30:48;;;;;;;4.60;1.03;;;;;;;15.39;34.00;96935.84;5005465;28;20211;-54
2022/04/12 10:33:26;;;;;;;4.00;0.87;;;;;;;15.37;33.99;96929.91;5025689;28;20404;-54
2022/04/12 10:35:59;;;;;;;1.17;1.00;;;;;;;15.41;33.19;96934.56;5018807;28;20771;-55
2022/04/12 10:38:38;;;;;;;0.90;0.90;;;;;;;15.39;33.19;96927.84;5010750;28;20233;-52
2022/04/12 10:41:13;;;;;;;2.10;0.70;;;;;;;15.47;31.48;96933.69;5030586;28;20223;-55
2022/04/12 10:43:43;;;;;;;0.70;0.70;;;;;;;15.66;31.54;96938.22;5023692;28;20254;-55
2022/04/12 10:46:19;;;;;;;3.60;1.13;;;;;;;15.60;31.02;96932.72;4969386;28;20607;-53
2022/04/12 10:48:55;;;;;;;1.07;1.00;;;;;;;15.59;30.36;96928.41;5027754;28;20202;-58
2022/04/12 10:51:37;;;;;;;1.30;0.90;;;;;;;15.59;33.06;96928.41;5014146;28;20199;-51
2022/04/12 10:54:06;;;;;;;0.80;0.80;;;;;;;15.52;31.26;96918.84;5014131;28;20211;-57
2022/04/12 10:56:34;;;;;;;1.10;1.00;;;;;;;15.80;29.46;96917.50;5020792;28;20762;-54
2022/04/12 10:59:04;;;;;;;3.20;0.97;;;;;;;15.77;29.95;96916.91;5022757;28;20660;-53
2022/04/12 11:01:35;;;;;;;0.90;0.90;;;;;;;15.76;29.92;96911.81;4967967;28;20223;-58
2022/04/12 11:04:04;;;;;;;2.07;1.10;;;;;;;15.78;29.82;96918.56;5025744;28;20813;-52
2022/04/12 11:06:33;;;;;;;2.00;0.90;;;;;;;15.85;29.50;96904.28;5011353;28;20366;-53
2022/04/12 11:09:12;;;;;;;1.33;1.27;;;;;;;15.70;28.11;96907.34;5024220;28;20647;-54
2022/04/12 11:11:41;;;;;;;4.20;1.17;;;;;;;15.97;29.46;96907.88;5013788;28;20712;-55
2022/04/12 11:14:26;;;;;;;4.17;1.33;;;;;;;15.97;28.63;96899.88;5022831;28;20622;-53
2022/04/12 11:17:00;;;;;;;1.20;0.87;;;;;;;15.97;28.07;96891.84;5025301;28;20234;-60
2022/04/12 11:19:28;;;;;;;1.43;0.77;;;;;;;16.01;27.62;96886.84;5009211;28;20400;-53
2022/04/12 11:22:00;;;;;;;0.70;0.70;;;;;;;16.03;29.30;96892.78;5015168;28;20666;-58
2022/04/12 11:24:29;;;;;;;1.20;1.10;;;;;;;16.22;29.39;96888.22;5009195;28;20887;-57
2022/04/12 11:27:08;;;;;;;0.70;0.70;;;;;;;16.27;28.56;96890.22;5026412;28;20212;-54
2022/04/12 11:29:39;;;;;;;0.67;0.67;;;;;;;16.29;30.94;96890.81;5024186;28;20451;-55
2022/04/12 11:32:08;;;;;;;1.03;1.00;;;;;;;16.47;30.34;96884.56;4982060;28;20322;-56
2022/04/12 11:34:38;;;;;;;0.80;0.80;;;;;;;16.55;30.92;96886.91;5007977;28;20234;-57
2022/04/12 11:37:08;;;;;;;2.87;1.00;;;;;;;16.78;30.66;96878.09;5028933;28;20199;-57
2022/04/12 11:39:39;;;;;;;2.10;1.33;;;;;;;16.86;29.24;96874.28;5013763;28;20234;-54
2022/04/12 11:42:09;;;;;;;1.00;1.00;;;;;;;16.84;28.68;96881.72;5017486;28;20251;-53
2022/04/12 11:44:39;;;;;;;2.87;2.53;;;;;;;16.89;28.98;96871.13;5026705;28;20200;-50